Comanche, TX

12:19 PM CDT on May 25, 2015 (GMT -0500)
Comanche | | Change Station
CLOSE
Current Station
Airport
Location: Comanche,
Elevation: 1388 ft
Nearby Weather Stations

Elev 1388 ft 31.92 °N, 98.60 °W | Updated 24 minutes ago

Mostly Cloudy
Mostly Cloudy
74 °F
Feels Like 74 °F
N
15
Wind Variable Wind from South
Gusts 21 mph

Today
High -- | Low -- °F
--% Chance of Precip.
Yesterday
High -- | Low -- °F
Precip. -- in
6:31 AM 8:31 PM
Waxing Crescent, 50% visible
Pressure 29.85 in
Visibility 10.0 miles
Clouds Scattered Clouds 2200 ft
Mostly Cloudy 4500 ft
Mostly Cloudy 7000 ft
Dew Point 71 °F
Humidity 91%
Rainfall 0.00 in
Snow Depth Not available.
UV 6 out of 12
Pollen 2.40 out of 12
Air Quality Not available.
Flu Activity Sporadic
METAR KMKN 251655Z AUTO 17013G18KT 10SM SCT022 BKN045 BKN070 23/22 A2985 RMK AO2 LTG DSNT ALQS T02330218

More Conditions Fewer Conditions

Pressure 29.85 in
Visibility 10.0 miles
Clouds Scattered Clouds 2200 ft
Mostly Cloudy 4500 ft
Mostly Cloudy 7000 ft
Dew Point 71 °F
Humidity 91%
Rainfall 0.00 in
Snow Depth Not available.
UV 6 out of 12
Pollen 2.40 out of 12
Air Quality Not available.
Flu Activity Sporadic
METAR KMKN 251655Z AUTO 17013G18KT 10SM SCT022 BKN045 BKN070 23/22 A2985 RMK AO2 LTG DSNT ALQS T02330218

More Conditions Fewer Conditions

Nowcast | as of 11:52 am CDT on May 25, 2015

A line of strong to severe thunderstorms will continue to move towards the northeast at around 35 to 40 mph. The main hazards with this line of thunderstorms will be damaging straight line winds...and perhaps quarter sized hail. Heavy rain and a brief tornado will also be possible. Additional showers and thunderstorms will also develop ahead of the main line along the Highway 281 corridor. Otherwise...expect mostly to partly cloudy skies across much of north and central Texas. Temperatures will climb into the mid 70s and low 80s. Additional thunderstorm development will be possible through the afternoon hours. These thunderstorms will likely become severe and will be capable of producing large hail...destructive winds and a few tornadoes. Heavy rain will also likely result in flash flooding.

×

10-Day Weather Forecast

Almanac

Astronomy

May. 25, 2015 Rise Set
Actual Time
Civil Twilight
Nautical Twilight
Astronomical Twilight
Moon
Length of Visible Light
Length of Day
Tomorrow will be .
, % of the Moon is Illuminated

Today's Extremes

State Highs State Lows

Community

WunderPhotos

Upload Photos

1,824,063 photos uploaded!

WunderBlogs® & News

Nearby

Air Quality

  Air Quality AQ Index Pollutant
Not available.

Snow Depth

Station Depth Elevation

Earthquake Activity

City Distance Mag. Time & Date
Minimum magnitude displayed is 2.5.

Coastal Water Temperatures

Place Temperature

Stations

Nearby Weather Stations

Station Location Temp. Windchill Dew Point Humidity Wind Precip. Elev Updated Type